sensor_id;sensor_type;location;lat;lon;timestamp;P1;durP1;ratioP1;P2;durP2;ratioP2
31537;SDS011;18147;51.952;6.146;2023-04-21T00:00:01;118.78;;;43.92;;
31537;SDS011;18147;51.952;6.146;2023-04-21T00:02:27;157.25;;;49.35;;
31537;SDS011;18147;51.952;6.146;2023-04-21T00:04:53;132.32;;;49.95;;
31537;SDS011;18147;51.952;6.146;2023-04-21T00:07:20;138.77;;;51.38;;
31537;SDS011;18147;51.952;6.146;2023-04-21T00:09:46;111.60;;;44.97;;
31537;SDS011;18147;51.952;6.146;2023-04-21T00:12:12;137.25;;;48.75;;
31537;SDS011;18147;51.952;6.146;2023-04-21T00:14:37;165.65;;;54.42;;
31537;SDS011;18147;51.952;6.146;2023-04-21T00:17:04;184.10;;;58.17;;
31537;SDS011;18147;51.952;6.146;2023-04-21T00:19:29;142.52;;;51.75;;
31537;SDS011;18147;51.952;6.146;2023-04-21T00:21:55;164.88;;;55.25;;
31537;SDS011;18147;51.952;6.146;2023-04-21T00:24:23;164.63;;;56.95;;
31537;SDS011;18147;51.952;6.146;2023-04-21T00:26:49;202.43;;;64.47;;
31537;SDS011;18147;51.952;6.146;2023-04-21T00:29:15;191.85;;;60.10;;
31537;SDS011;18147;51.952;6.146;2023-04-21T00:31:41;222.70;;;62.45;;
31537;SDS011;18147;51.952;6.146;2023-04-21T00:34:06;212.43;;;62.00;;
31537;SDS011;18147;51.952;6.146;2023-04-21T00:36:32;213.02;;;62.08;;
31537;SDS011;18147;51.952;6.146;2023-04-21T00:38:57;247.27;;;67.10;;
31537;SDS011;18147;51.952;6.146;2023-04-21T00:41:23;261.58;;;71.47;;
31537;SDS011;18147;51.952;6.146;2023-04-21T00:44:02;322.55;;;74.20;;
31537;SDS011;18147;51.952;6.146;2023-04-21T00:46:30;254.73;;;68.93;;
31537;SDS011;18147;51.952;6.146;2023-04-21T00:48:56;257.70;;;69.40;;
31537;SDS011;18147;51.952;6.146;2023-04-21T00:51:22;324.27;;;76.90;;
31537;SDS011;18147;51.952;6.146;2023-04-21T00:53:49;393.73;;;87.20;;
31537;SDS011;18147;51.952;6.146;2023-04-21T00:56:15;372.73;;;81.80;;
31537;SDS011;18147;51.952;6.146;2023-04-21T00:58:42;285.02;;;72.18;;
31537;SDS011;18147;51.952;6.146;2023-04-21T01:01:09;294.40;;;74.57;;
31537;SDS011;18147;51.952;6.146;2023-04-21T01:03:36;318.15;;;73.15;;
31537;SDS011;18147;51.952;6.146;2023-04-21T01:06:02;323.30;;;78.18;;
31537;SDS011;18147;51.952;6.146;2023-04-21T01:08:28;238.77;;;65.13;;
31537;SDS011;18147;51.952;6.146;2023-04-21T01:10:53;307.27;;;73.13;;
31537;SDS011;18147;51.952;6.146;2023-04-21T01:13:19;243.70;;;67.85;;
31537;SDS011;18147;51.952;6.146;2023-04-21T01:15:46;311.75;;;75.75;;
31537;SDS011;18147;51.952;6.146;2023-04-21T01:18:12;238.75;;;65.57;;
31537;SDS011;18147;51.952;6.146;2023-04-21T01:20:39;241.27;;;67.70;;
31537;SDS011;18147;51.952;6.146;2023-04-21T01:23:04;302.65;;;76.82;;
31537;SDS011;18147;51.952;6.146;2023-04-21T01:25:31;278.95;;;71.18;;
31537;SDS011;18147;51.952;6.146;2023-04-21T01:27:57;397.23;;;87.05;;
31537;SDS011;18147;51.952;6.146;2023-04-21T01:30:23;236.90;;;69.63;;
31537;SDS011;18147;51.952;6.146;2023-04-21T01:32:49;390.45;;;92.57;;
31537;SDS011;18147;51.952;6.146;2023-04-21T01:35:15;302.05;;;81.05;;
31537;SDS011;18147;51.952;6.146;2023-04-21T01:37:40;320.45;;;77.40;;
31537;SDS011;18147;51.952;6.146;2023-04-21T01:40:06;488.48;;;105.53;;
31537;SDS011;18147;51.952;6.146;2023-04-21T01:42:34;490.63;;;103.03;;
31537;SDS011;18147;51.952;6.146;2023-04-21T01:45:01;404.67;;;90.57;;
31537;SDS011;18147;51.952;6.146;2023-04-21T01:47:27;382.52;;;88.35;;
31537;SDS011;18147;51.952;6.146;2023-04-21T01:49:53;272.38;;;70.38;;
31537;SDS011;18147;51.952;6.146;2023-04-21T01:52:18;441.08;;;91.25;;
31537;SDS011;18147;51.952;6.146;2023-04-21T01:54:44;291.15;;;75.57;;
31537;SDS011;18147;51.952;6.146;2023-04-21T01:57:10;303.50;;;76.15;;
31537;SDS011;18147;51.952;6.146;2023-04-21T01:59:36;268.63;;;71.15;;
31537;SDS011;18147;51.952;6.146;2023-04-21T02:02:02;353.73;;;86.57;;
31537;SDS011;18147;51.952;6.146;2023-04-21T02:04:27;574.50;;;110.15;;
31537;SDS011;18147;51.952;6.146;2023-04-21T02:06:53;438.48;;;102.43;;
31537;SDS011;18147;51.952;6.146;2023-04-21T02:09:18;492.17;;;102.90;;
31537;SDS011;18147;51.952;6.146;2023-04-21T02:11:44;314.65;;;75.88;;
31537;SDS011;18147;51.952;6.146;2023-04-21T02:14:10;247.38;;;70.63;;
31537;SDS011;18147;51.952;6.146;2023-04-21T02:16:35;347.00;;;82.85;;
31537;SDS011;18147;51.952;6.146;2023-04-21T02:19:01;349.40;;;84.95;;
31537;SDS011;18147;51.952;6.146;2023-04-21T02:21:31;424.10;;;97.00;;
31537;SDS011;18147;51.952;6.146;2023-04-21T02:23:56;357.23;;;82.13;;
31537;SDS011;18147;51.952;6.146;2023-04-21T02:26:24;347.92;;;83.38;;
31537;SDS011;18147;51.952;6.146;2023-04-21T02:28:50;359.63;;;78.78;;
31537;SDS011;18147;51.952;6.146;2023-04-21T02:31:16;351.40;;;82.90;;
31537;SDS011;18147;51.952;6.146;2023-04-21T02:33:43;384.58;;;86.18;;
31537;SDS011;18147;51.952;6.146;2023-04-21T02:36:09;469.83;;;96.75;;
31537;SDS011;18147;51.952;6.146;2023-04-21T02:38:35;390.92;;;90.28;;
31537;SDS011;18147;51.952;6.146;2023-04-21T02:41:01;341.25;;;81.43;;
31537;SDS011;18147;51.952;6.146;2023-04-21T02:43:26;319.45;;;81.55;;
31537;SDS011;18147;51.952;6.146;2023-04-21T02:45:53;345.92;;;84.70;;
31537;SDS011;18147;51.952;6.146;2023-04-21T02:48:19;311.08;;;78.18;;
31537;SDS011;18147;51.952;6.146;2023-04-21T02:50:50;264.75;;;78.32;;
31537;SDS011;18147;51.952;6.146;2023-04-21T02:53:18;316.13;;;82.93;;
31537;SDS011;18147;51.952;6.146;2023-04-21T02:55:44;276.10;;;77.43;;
31537;SDS011;18147;51.952;6.146;2023-04-21T02:58:09;302.20;;;78.65;;
31537;SDS011;18147;51.952;6.146;2023-04-21T03:00:35;326.83;;;86.22;;
31537;SDS011;18147;51.952;6.146;2023-04-21T03:03:01;396.00;;;91.88;;
31537;SDS011;18147;51.952;6.146;2023-04-21T03:05:27;271.58;;;78.53;;
31537;SDS011;18147;51.952;6.146;2023-04-21T03:07:53;260.27;;;76.97;;
31537;SDS011;18147;51.952;6.146;2023-04-21T03:10:18;324.50;;;82.30;;
31537;SDS011;18147;51.952;6.146;2023-04-21T03:12:44;369.27;;;84.15;;
31537;SDS011;18147;51.952;6.146;2023-04-21T03:15:10;281.92;;;76.05;;
31537;SDS011;18147;51.952;6.146;2023-04-21T03:17:36;240.98;;;73.20;;
31537;SDS011;18147;51.952;6.146;2023-04-21T03:20:02;280.98;;;79.90;;
31537;SDS011;18147;51.952;6.146;2023-04-21T03:22:35;361.58;;;88.53;;
31537;SDS011;18147;51.952;6.146;2023-04-21T03:25:01;275.88;;;79.32;;
31537;SDS011;18147;51.952;6.146;2023-04-21T03:27:26;279.02;;;77.30;;
31537;SDS011;18147;51.952;6.146;2023-04-21T03:29:52;231.27;;;76.40;;
31537;SDS011;18147;51.952;6.146;2023-04-21T03:32:17;327.92;;;81.28;;
31537;SDS011;18147;51.952;6.146;2023-04-21T03:34:43;213.35;;;71.28;;
31537;SDS011;18147;51.952;6.146;2023-04-21T03:37:09;244.48;;;74.60;;
31537;SDS011;18147;51.952;6.146;2023-04-21T03:39:34;241.20;;;72.60;;
31537;SDS011;18147;51.952;6.146;2023-04-21T03:42:00;320.88;;;85.30;;
31537;SDS011;18147;51.952;6.146;2023-04-21T03:44:27;233.43;;;71.28;;
31537;SDS011;18147;51.952;6.146;2023-04-21T03:46:53;213.90;;;72.70;;
31537;SDS011;18147;51.952;6.146;2023-04-21T03:49:21;238.05;;;72.65;;
31537;SDS011;18147;51.952;6.146;2023-04-21T03:51:46;225.52;;;75.00;;
31537;SDS011;18147;51.952;6.146;2023-04-21T03:54:12;294.60;;;81.35;;
31537;SDS011;18147;51.952;6.146;2023-04-21T03:56:37;277.67;;;79.47;;
31537;SDS011;18147;51.952;6.146;2023-04-21T03:59:05;394.13;;;90.60;;
31537;SDS011;18147;51.952;6.146;2023-04-21T04:01:32;291.45;;;81.78;;
31537;SDS011;18147;51.952;6.146;2023-04-21T04:03:58;253.82;;;76.63;;
31537;SDS011;18147;51.952;6.146;2023-04-21T04:06:23;264.10;;;79.38;;
31537;SDS011;18147;51.952;6.146;2023-04-21T04:08:49;254.38;;;78.13;;
31537;SDS011;18147;51.952;6.146;2023-04-21T04:11:14;249.65;;;77.85;;
31537;SDS011;18147;51.952;6.146;2023-04-21T04:13:40;305.27;;;84.00;;
31537;SDS011;18147;51.952;6.146;2023-04-21T04:16:05;295.45;;;84.68;;
31537;SDS011;18147;51.952;6.146;2023-04-21T04:18:31;284.60;;;80.57;;
31537;SDS011;18147;51.952;6.146;2023-04-21T04:20:57;325.33;;;87.20;;
31537;SDS011;18147;51.952;6.146;2023-04-21T04:23:22;296.08;;;82.57;;
31537;SDS011;18147;51.952;6.146;2023-04-21T04:25:48;286.83;;;80.85;;
31537;SDS011;18147;51.952;6.146;2023-04-21T04:28:15;256.88;;;76.85;;
31537;SDS011;18147;51.952;6.146;2023-04-21T04:30:41;208.27;;;70.35;;
31537;SDS011;18147;51.952;6.146;2023-04-21T04:33:07;231.57;;;75.75;;
31537;SDS011;18147;51.952;6.146;2023-04-21T04:35:34;223.90;;;72.88;;
31537;SDS011;18147;51.952;6.146;2023-04-21T04:37:59;205.75;;;74.03;;
31537;SDS011;18147;51.952;6.146;2023-04-21T04:40:25;192.27;;;71.32;;
31537;SDS011;18147;51.952;6.146;2023-04-21T04:42:50;196.75;;;67.07;;
31537;SDS011;18147;51.952;6.146;2023-04-21T04:45:16;199.30;;;69.93;;
31537;SDS011;18147;51.952;6.146;2023-04-21T04:47:46;244.73;;;79.40;;
31537;SDS011;18147;51.952;6.146;2023-04-21T04:50:12;208.20;;;70.07;;
31537;SDS011;18147;51.952;6.146;2023-04-21T04:52:37;207.93;;;71.07;;
31537;SDS011;18147;51.952;6.146;2023-04-21T04:55:03;225.23;;;72.88;;
31537;SDS011;18147;51.952;6.146;2023-04-21T04:57:29;200.02;;;69.43;;
31537;SDS011;18147;51.952;6.146;2023-04-21T04:59:55;240.75;;;77.72;;
31537;SDS011;18147;51.952;6.146;2023-04-21T05:02:20;223.10;;;74.47;;
31537;SDS011;18147;51.952;6.146;2023-04-21T05:04:48;250.52;;;77.50;;
31537;SDS011;18147;51.952;6.146;2023-04-21T05:07:14;247.98;;;77.28;;
31537;SDS011;18147;51.952;6.146;2023-04-21T05:09:40;244.75;;;78.97;;
31537;SDS011;18147;51.952;6.146;2023-04-21T05:12:05;228.05;;;75.70;;
31537;SDS011;18147;51.952;6.146;2023-04-21T05:14:31;261.50;;;79.38;;
31537;SDS011;18147;51.952;6.146;2023-04-21T05:16:57;191.52;;;66.00;;
31537;SDS011;18147;51.952;6.146;2023-04-21T05:19:22;213.48;;;73.70;;
31537;SDS011;18147;51.952;6.146;2023-04-21T05:21:48;211.05;;;74.22;;
31537;SDS011;18147;51.952;6.146;2023-04-21T05:24:13;200.43;;;67.10;;
31537;SDS011;18147;51.952;6.146;2023-04-21T05:26:39;211.18;;;69.20;;
31537;SDS011;18147;51.952;6.146;2023-04-21T05:29:04;185.15;;;68.15;;
31537;SDS011;18147;51.952;6.146;2023-04-21T05:31:30;184.18;;;67.07;;
31537;SDS011;18147;51.952;6.146;2023-04-21T05:33:57;186.32;;;66.38;;
31537;SDS011;18147;51.952;6.146;2023-04-21T05:36:22;202.75;;;71.20;;
31537;SDS011;18147;51.952;6.146;2023-04-21T05:38:49;224.48;;;71.60;;
31537;SDS011;18147;51.952;6.146;2023-04-21T05:41:14;196.48;;;67.57;;
31537;SDS011;18147;51.952;6.146;2023-04-21T05:43:40;187.13;;;66.80;;
31537;SDS011;18147;51.952;6.146;2023-04-21T05:46:08;184.30;;;67.65;;
31537;SDS011;18147;51.952;6.146;2023-04-21T05:48:37;172.23;;;64.97;;
31537;SDS011;18147;51.952;6.146;2023-04-21T05:51:07;228.32;;;71.53;;
31537;SDS011;18147;51.952;6.146;2023-04-21T05:53:34;181.90;;;68.50;;
31537;SDS011;18147;51.952;6.146;2023-04-21T05:56:00;169.27;;;63.92;;
31537;SDS011;18147;51.952;6.146;2023-04-21T05:58:25;160.30;;;62.25;;
31537;SDS011;18147;51.952;6.146;2023-04-21T06:00:51;157.50;;;62.45;;
31537;SDS011;18147;51.952;6.146;2023-04-21T06:03:16;174.23;;;64.85;;
31537;SDS011;18147;51.952;6.146;2023-04-21T06:05:42;144.15;;;58.45;;
31537;SDS011;18147;51.952;6.146;2023-04-21T06:08:07;138.55;;;58.20;;
31537;SDS011;18147;51.952;6.146;2023-04-21T06:10:33;140.40;;;60.55;;
31537;SDS011;18147;51.952;6.146;2023-04-21T06:12:58;139.70;;;58.05;;
31537;SDS011;18147;51.952;6.146;2023-04-21T06:15:24;131.13;;;57.63;;
31537;SDS011;18147;51.952;6.146;2023-04-21T06:17:53;125.30;;;56.95;;
31537;SDS011;18147;51.952;6.146;2023-04-21T06:20:19;140.85;;;60.97;;
31537;SDS011;18147;51.952;6.146;2023-04-21T06:22:45;141.52;;;58.83;;
31537;SDS011;18147;51.952;6.146;2023-04-21T06:25:10;140.30;;;59.58;;
31537;SDS011;18147;51.952;6.146;2023-04-21T06:27:36;124.97;;;54.58;;
31537;SDS011;18147;51.952;6.146;2023-04-21T06:30:02;145.80;;;62.58;;
31537;SDS011;18147;51.952;6.146;2023-04-21T06:32:27;117.63;;;54.45;;
31537;SDS011;18147;51.952;6.146;2023-04-21T06:34:53;145.07;;;62.55;;
31537;SDS011;18147;51.952;6.146;2023-04-21T06:37:18;137.80;;;61.42;;
31537;SDS011;18147;51.952;6.146;2023-04-21T06:39:44;142.32;;;61.70;;
31537;SDS011;18147;51.952;6.146;2023-04-21T06:42:10;117.93;;;58.35;;
31537;SDS011;18147;51.952;6.146;2023-04-21T06:44:40;117.32;;;58.05;;
31537;SDS011;18147;51.952;6.146;2023-04-21T06:47:06;114.63;;;56.10;;
31537;SDS011;18147;51.952;6.146;2023-04-21T06:49:32;106.43;;;55.50;;
31537;SDS011;18147;51.952;6.146;2023-04-21T06:51:58;101.80;;;52.13;;
31537;SDS011;18147;51.952;6.146;2023-04-21T06:54:23;108.28;;;53.90;;
31537;SDS011;18147;51.952;6.146;2023-04-21T06:56:49;100.22;;;53.60;;
31537;SDS011;18147;51.952;6.146;2023-04-21T06:59:15;96.03;;;51.33;;
31537;SDS011;18147;51.952;6.146;2023-04-21T07:01:41;92.13;;;50.47;;
31537;SDS011;18147;51.952;6.146;2023-04-21T07:04:06;106.25;;;56.13;;
31537;SDS011;18147;51.952;6.146;2023-04-21T07:06:33;103.47;;;53.25;;
31537;SDS011;18147;51.952;6.146;2023-04-21T07:08:59;108.60;;;56.03;;
31537;SDS011;18147;51.952;6.146;2023-04-21T07:11:25;108.75;;;54.20;;
31537;SDS011;18147;51.952;6.146;2023-04-21T07:13:52;103.38;;;54.25;;
31537;SDS011;18147;51.952;6.146;2023-04-21T07:16:18;97.28;;;50.92;;
31537;SDS011;18147;51.952;6.146;2023-04-21T07:18:44;99.60;;;50.15;;
31537;SDS011;18147;51.952;6.146;2023-04-21T07:21:09;98.03;;;53.03;;
31537;SDS011;18147;51.952;6.146;2023-04-21T07:23:35;110.78;;;56.55;;
31537;SDS011;18147;51.952;6.146;2023-04-21T07:26:00;95.70;;;52.28;;
31537;SDS011;18147;51.952;6.146;2023-04-21T07:28:26;100.30;;;52.47;;
31537;SDS011;18147;51.952;6.146;2023-04-21T07:30:51;100.40;;;51.55;;
31537;SDS011;18147;51.952;6.146;2023-04-21T07:33:17;96.20;;;50.22;;
31537;SDS011;18147;51.952;6.146;2023-04-21T07:35:42;83.50;;;47.88;;
31537;SDS011;18147;51.952;6.146;2023-04-21T07:38:08;90.18;;;49.35;;
31537;SDS011;18147;51.952;6.146;2023-04-21T07:40:34;99.30;;;52.10;;
31537;SDS011;18147;51.952;6.146;2023-04-21T07:43:00;96.78;;;51.17;;
31537;SDS011;18147;51.952;6.146;2023-04-21T07:45:25;105.65;;;53.63;;
31537;SDS011;18147;51.952;6.146;2023-04-21T07:47:51;102.20;;;53.20;;
31537;SDS011;18147;51.952;6.146;2023-04-21T07:50:16;99.03;;;51.75;;
31537;SDS011;18147;51.952;6.146;2023-04-21T07:52:42;98.00;;;50.90;;
31537;SDS011;18147;51.952;6.146;2023-04-21T07:55:08;90.03;;;50.88;;
31537;SDS011;18147;51.952;6.146;2023-04-21T07:57:34;96.75;;;50.83;;
31537;SDS011;18147;51.952;6.146;2023-04-21T08:00:03;91.93;;;49.75;;
31537;SDS011;18147;51.952;6.146;2023-04-21T08:02:37;92.32;;;50.35;;
31537;SDS011;18147;51.952;6.146;2023-04-21T08:05:03;87.40;;;49.42;;
31537;SDS011;18147;51.952;6.146;2023-04-21T08:07:29;95.65;;;50.72;;
31537;SDS011;18147;51.952;6.146;2023-04-21T08:09:55;100.82;;;53.53;;
31537;SDS011;18147;51.952;6.146;2023-04-21T08:12:21;95.43;;;51.25;;
31537;SDS011;18147;51.952;6.146;2023-04-21T08:14:47;96.97;;;50.70;;
31537;SDS011;18147;51.952;6.146;2023-04-21T08:17:12;86.95;;;50.00;;
31537;SDS011;18147;51.952;6.146;2023-04-21T08:19:38;82.78;;;47.97;;
31537;SDS011;18147;51.952;6.146;2023-04-21T08:22:03;94.00;;;50.42;;
31537;SDS011;18147;51.952;6.146;2023-04-21T08:24:29;84.30;;;48.55;;
31537;SDS011;18147;51.952;6.146;2023-04-21T08:26:55;85.90;;;48.53;;
31537;SDS011;18147;51.952;6.146;2023-04-21T08:29:22;84.72;;;47.60;;
31537;SDS011;18147;51.952;6.146;2023-04-21T08:31:47;80.80;;;47.35;;
31537;SDS011;18147;51.952;6.146;2023-04-21T08:34:13;84.18;;;48.25;;
31537;SDS011;18147;51.952;6.146;2023-04-21T08:36:38;81.90;;;46.08;;
31537;SDS011;18147;51.952;6.146;2023-04-21T08:39:06;83.38;;;49.80;;
31537;SDS011;18147;51.952;6.146;2023-04-21T08:41:32;78.22;;;45.63;;
31537;SDS011;18147;51.952;6.146;2023-04-21T08:43:58;74.75;;;43.70;;
31537;SDS011;18147;51.952;6.146;2023-04-21T08:46:26;74.97;;;44.97;;
31537;SDS011;18147;51.952;6.146;2023-04-21T08:48:52;71.13;;;42.63;;
31537;SDS011;18147;51.952;6.146;2023-04-21T08:51:22;80.30;;;45.20;;
31537;SDS011;18147;51.952;6.146;2023-04-21T08:53:48;76.05;;;44.75;;
31537;SDS011;18147;51.952;6.146;2023-04-21T08:56:14;76.85;;;45.17;;
31537;SDS011;18147;51.952;6.146;2023-04-21T08:58:39;69.18;;;43.50;;
31537;SDS011;18147;51.952;6.146;2023-04-21T09:01:05;68.35;;;43.05;;
31537;SDS011;18147;51.952;6.146;2023-04-21T09:03:34;68.47;;;43.20;;
31537;SDS011;18147;51.952;6.146;2023-04-21T09:06:03;67.00;;;41.80;;
31537;SDS011;18147;51.952;6.146;2023-04-21T09:08:31;64.07;;;41.65;;
31537;SDS011;18147;51.952;6.146;2023-04-21T09:10:58;64.13;;;41.95;;
31537;SDS011;18147;51.952;6.146;2023-04-21T09:13:29;64.20;;;40.22;;
31537;SDS011;18147;51.952;6.146;2023-04-21T09:15:55;67.38;;;41.28;;
31537;SDS011;18147;51.952;6.146;2023-04-21T09:18:21;62.83;;;40.05;;
31537;SDS011;18147;51.952;6.146;2023-04-21T09:20:49;59.88;;;38.92;;
31537;SDS011;18147;51.952;6.146;2023-04-21T09:23:16;61.78;;;38.97;;
31537;SDS011;18147;51.952;6.146;2023-04-21T09:25:44;63.33;;;37.70;;
31537;SDS011;18147;51.952;6.146;2023-04-21T09:28:11;63.83;;;38.53;;
31537;SDS011;18147;51.952;6.146;2023-04-21T09:30:39;63.22;;;39.20;;
31537;SDS011;18147;51.952;6.146;2023-04-21T09:33:06;58.53;;;38.00;;
31537;SDS011;18147;51.952;6.146;2023-04-21T09:35:44;62.10;;;38.92;;
31537;SDS011;18147;51.952;6.146;2023-04-21T09:38:12;60.50;;;38.53;;
31537;SDS011;18147;51.952;6.146;2023-04-21T09:40:38;58.33;;;37.53;;
31537;SDS011;18147;51.952;6.146;2023-04-21T09:43:05;56.30;;;38.20;;
31537;SDS011;18147;51.952;6.146;2023-04-21T09:45:31;56.60;;;37.50;;
31537;SDS011;18147;51.952;6.146;2023-04-21T09:47:58;60.20;;;39.08;;
31537;SDS011;18147;51.952;6.146;2023-04-21T09:50:28;61.80;;;38.55;;
31537;SDS011;18147;51.952;6.146;2023-04-21T09:52:54;58.15;;;38.63;;
31537;SDS011;18147;51.952;6.146;2023-04-21T09:55:25;61.75;;;38.20;;
31537;SDS011;18147;51.952;6.146;2023-04-21T09:57:56;58.08;;;38.40;;
31537;SDS011;18147;51.952;6.146;2023-04-21T10:00:23;65.20;;;38.20;;
31537;SDS011;18147;51.952;6.146;2023-04-21T10:02:52;53.97;;;36.00;;
31537;SDS011;18147;51.952;6.146;2023-04-21T10:05:19;58.00;;;37.83;;
31537;SDS011;18147;51.952;6.146;2023-04-21T10:07:46;59.38;;;37.35;;
31537;SDS011;18147;51.952;6.146;2023-04-21T10:10:28;56.40;;;38.20;;
31537;SDS011;18147;51.952;6.146;2023-04-21T10:12:58;58.65;;;37.63;;
31537;SDS011;18147;51.952;6.146;2023-04-21T10:15:35;54.97;;;36.88;;
31537;SDS011;18147;51.952;6.146;2023-04-21T10:18:19;58.42;;;36.45;;
31537;SDS011;18147;51.952;6.146;2023-04-21T10:20:50;54.95;;;35.67;;
31537;SDS011;18147;51.952;6.146;2023-04-21T10:23:26;55.92;;;35.83;;
31537;SDS011;18147;51.952;6.146;2023-04-21T10:26:18;54.80;;;36.03;;
31537;SDS011;18147;51.952;6.146;2023-04-21T10:28:53;53.80;;;34.45;;
31537;SDS011;18147;51.952;6.146;2023-04-21T10:34:19;53.05;;;34.38;;
31537;SDS011;18147;51.952;6.146;2023-04-21T10:41:56;54.45;;;32.58;;
31537;SDS011;18147;51.952;6.146;2023-04-21T10:44:22;53.28;;;34.95;;
31537;SDS011;18147;51.952;6.146;2023-04-21T10:46:49;48.95;;;32.72;;
31537;SDS011;18147;51.952;6.146;2023-04-21T10:54:29;51.15;;;33.25;;
31537;SDS011;18147;51.952;6.146;2023-04-21T10:57:14;52.00;;;34.13;;
31537;SDS011;18147;51.952;6.146;2023-04-21T10:59:42;53.88;;;34.25;;
31537;SDS011;18147;51.952;6.146;2023-04-21T11:02:15;51.35;;;33.15;;
31537;SDS011;18147;51.952;6.146;2023-04-21T11:04:42;50.80;;;31.08;;
31537;SDS011;18147;51.952;6.146;2023-04-21T11:09:44;49.42;;;32.15;;
31537;SDS011;18147;51.952;6.146;2023-04-21T11:12:15;52.70;;;33.63;;
31537;SDS011;18147;51.952;6.146;2023-04-21T11:14:43;54.50;;;34.45;;
31537;SDS011;18147;51.952;6.146;2023-04-21T11:17:18;49.65;;;32.22;;
31537;SDS011;18147;51.952;6.146;2023-04-21T11:19:45;51.45;;;34.17;;
31537;SDS011;18147;51.952;6.146;2023-04-21T11:22:11;53.53;;;32.70;;
31537;SDS011;18147;51.952;6.146;2023-04-21T11:24:37;47.33;;;32.45;;
31537;SDS011;18147;51.952;6.146;2023-04-21T11:27:08;52.10;;;34.40;;
31537;SDS011;18147;51.952;6.146;2023-04-21T11:29:36;55.42;;;33.80;;
31537;SDS011;18147;51.952;6.146;2023-04-21T11:32:03;48.05;;;32.67;;
31537;SDS011;18147;51.952;6.146;2023-04-21T11:34:31;53.42;;;33.47;;
31537;SDS011;18147;51.952;6.146;2023-04-21T11:36:57;53.60;;;32.65;;
31537;SDS011;18147;51.952;6.146;2023-04-21T11:39:22;52.00;;;33.35;;
31537;SDS011;18147;51.952;6.146;2023-04-21T11:41:48;53.10;;;33.50;;
31537;SDS011;18147;51.952;6.146;2023-04-21T11:44:32;60.03;;;34.03;;
31537;SDS011;18147;51.952;6.146;2023-04-21T11:46:58;48.53;;;31.67;;
31537;SDS011;18147;51.952;6.146;2023-04-21T11:49:24;48.95;;;32.50;;
31537;SDS011;18147;51.952;6.146;2023-04-21T11:51:54;58.17;;;32.33;;
31537;SDS011;18147;51.952;6.146;2023-04-21T11:54:20;45.83;;;31.17;;
31537;SDS011;18147;51.952;6.146;2023-04-21T11:56:48;49.17;;;33.08;;
31537;SDS011;18147;51.952;6.146;2023-04-21T11:59:16;50.63;;;32.22;;
31537;SDS011;18147;51.952;6.146;2023-04-21T12:01:50;54.25;;;32.75;;
31537;SDS011;18147;51.952;6.146;2023-04-21T12:04:19;50.17;;;32.58;;
31537;SDS011;18147;51.952;6.146;2023-04-21T12:06:55;46.40;;;31.30;;
31537;SDS011;18147;51.952;6.146;2023-04-21T12:09:26;47.78;;;32.33;;
31537;SDS011;18147;51.952;6.146;2023-04-21T12:11:53;44.67;;;30.95;;
31537;SDS011;18147;51.952;6.146;2023-04-21T12:14:23;49.65;;;30.88;;
31537;SDS011;18147;51.952;6.146;2023-04-21T12:16:52;45.45;;;31.85;;
31537;SDS011;18147;51.952;6.146;2023-04-21T12:19:22;48.38;;;32.10;;
31537;SDS011;18147;51.952;6.146;2023-04-21T12:22:05;49.65;;;33.13;;
31537;SDS011;18147;51.952;6.146;2023-04-21T12:24:47;46.33;;;31.20;;
31537;SDS011;18147;51.952;6.146;2023-04-21T12:27:12;46.85;;;31.08;;
31537;SDS011;18147;51.952;6.146;2023-04-21T12:29:39;48.60;;;31.02;;
31537;SDS011;18147;51.952;6.146;2023-04-21T12:32:06;45.92;;;31.40;;
31537;SDS011;18147;51.952;6.146;2023-04-21T12:34:33;48.40;;;29.35;;
31537;SDS011;18147;51.952;6.146;2023-04-21T12:36:59;44.60;;;29.13;;
31537;SDS011;18147;51.952;6.146;2023-04-21T12:39:25;42.08;;;26.75;;
31537;SDS011;18147;51.952;6.146;2023-04-21T12:41:51;41.25;;;26.92;;
31537;SDS011;18147;51.952;6.146;2023-04-21T12:44:19;40.67;;;28.55;;
31537;SDS011;18147;51.952;6.146;2023-04-21T12:46:45;38.95;;;25.83;;
31537;SDS011;18147;51.952;6.146;2023-04-21T12:49:12;42.80;;;27.50;;
31537;SDS011;18147;51.952;6.146;2023-04-21T12:51:39;43.10;;;26.13;;
31537;SDS011;18147;51.952;6.146;2023-04-21T12:54:05;40.08;;;25.67;;
31537;SDS011;18147;51.952;6.146;2023-04-21T12:56:33;38.85;;;24.65;;
31537;SDS011;18147;51.952;6.146;2023-04-21T12:58:59;39.65;;;25.45;;
31537;SDS011;18147;51.952;6.146;2023-04-21T13:01:25;41.17;;;26.45;;
31537;SDS011;18147;51.952;6.146;2023-04-21T13:03:50;36.65;;;26.10;;
31537;SDS011;18147;51.952;6.146;2023-04-21T13:06:16;37.08;;;25.40;;
31537;SDS011;18147;51.952;6.146;2023-04-21T13:08:44;40.53;;;26.20;;
31537;SDS011;18147;51.952;6.146;2023-04-21T13:11:10;40.35;;;24.60;;
31537;SDS011;18147;51.952;6.146;2023-04-21T13:13:36;44.35;;;26.17;;
31537;SDS011;18147;51.952;6.146;2023-04-21T13:16:03;39.78;;;26.08;;
31537;SDS011;18147;51.952;6.146;2023-04-21T13:18:29;35.25;;;24.80;;
31537;SDS011;18147;51.952;6.146;2023-04-21T13:20:55;36.63;;;25.73;;
31537;SDS011;18147;51.952;6.146;2023-04-21T13:23:20;39.53;;;26.40;;
31537;SDS011;18147;51.952;6.146;2023-04-21T13:25:46;37.70;;;26.38;;
31537;SDS011;18147;51.952;6.146;2023-04-21T13:28:12;39.20;;;25.35;;
31537;SDS011;18147;51.952;6.146;2023-04-21T13:30:38;46.97;;;26.30;;
31537;SDS011;18147;51.952;6.146;2023-04-21T13:33:04;38.72;;;25.35;;
31537;SDS011;18147;51.952;6.146;2023-04-21T13:35:30;37.30;;;25.27;;
31537;SDS011;18147;51.952;6.146;2023-04-21T13:37:55;50.40;;;26.55;;
31537;SDS011;18147;51.952;6.146;2023-04-21T13:40:21;38.92;;;26.38;;
31537;SDS011;18147;51.952;6.146;2023-04-21T13:42:46;36.65;;;25.02;;
31537;SDS011;18147;51.952;6.146;2023-04-21T13:45:13;41.42;;;25.65;;
31537;SDS011;18147;51.952;6.146;2023-04-21T13:47:39;34.72;;;26.05;;
31537;SDS011;18147;51.952;6.146;2023-04-21T13:50:05;39.00;;;26.25;;
31537;SDS011;18147;51.952;6.146;2023-04-21T13:52:31;44.63;;;26.67;;
31537;SDS011;18147;51.952;6.146;2023-04-21T13:54:58;41.55;;;26.70;;
31537;SDS011;18147;51.952;6.146;2023-04-21T13:57:24;38.17;;;26.15;;
31537;SDS011;18147;51.952;6.146;2023-04-21T13:59:50;42.67;;;26.88;;
31537;SDS011;18147;51.952;6.146;2023-04-21T14:02:16;40.35;;;25.58;;
31537;SDS011;18147;51.952;6.146;2023-04-21T14:04:42;36.67;;;26.33;;
31537;SDS011;18147;51.952;6.146;2023-04-21T14:07:07;38.38;;;24.98;;
31537;SDS011;18147;51.952;6.146;2023-04-21T14:09:34;39.80;;;26.98;;
31537;SDS011;18147;51.952;6.146;2023-04-21T14:12:00;36.03;;;25.10;;
31537;SDS011;18147;51.952;6.146;2023-04-21T14:14:27;43.45;;;26.48;;
31537;SDS011;18147;51.952;6.146;2023-04-21T14:16:53;40.15;;;28.35;;
31537;SDS011;18147;51.952;6.146;2023-04-21T14:19:18;35.65;;;25.73;;
31537;SDS011;18147;51.952;6.146;2023-04-21T14:21:44;46.13;;;28.60;;
31537;SDS011;18147;51.952;6.146;2023-04-21T14:24:10;44.15;;;28.48;;
31537;SDS011;18147;51.952;6.146;2023-04-21T14:26:35;44.72;;;26.63;;